<?xml version="1.0" encoding="UTF-8" standalone="no" ?>
<gpx xmlns="http://www.topografix.com/GPX/1/1" xmlns:xsi="http://www.w3.org/2001/XMLSchema-instance" xsi:schemaLocation="http://www.topografix.com/GPX/1/1 http://www.topografix.com/GPX/1/1/gpx.xsd" version="1.1" creator="VisuGPX - https://www.visugpx.com">
  <metadata>
    <name>Bagnols -Pennafort -Fille d'Isnard</name>
    <desc><![CDATA[avec RA]]></desc>
  </metadata>
  <trk>
    <name><![CDATA[Tour du Lac St Cassien_2]]></name>
    <extensions>
      <line xmlns="http://www.topografix.com/GPX/gpx_style/0/2">
        <color>FF0000</color>
        <width>4</width>
      </line>
    </extensions>
    <trkseg>
      <trkpt lat="43.58864" lon="6.77749">
        <ele>152.7</ele>
        <time>2025-10-24T08:45:19.000Z</time>
      </trkpt>
      <trkpt lat="43.58865" lon="6.7775">
        <ele>152.8</ele>
        <time>2025-10-24T08:45:20.000Z</time>
      </trkpt>
      <trkpt lat="43.58866" lon="6.7775">
        <ele>152.8</ele>
        <time>2025-10-24T08:45:21.000Z</time>
      </trkpt>
      <trkpt lat="43.58867" lon="6.77751">
        <ele>152.8</ele>
        <time>2025-10-24T08:45:22.000Z</time>
      </trkpt>
      <trkpt lat="43.58867" lon="6.77752">
        <ele>152.9</ele>
        <time>2025-10-24T08:45:23.000Z</time>
      </trkpt>
      <trkpt lat="43.58868" lon="6.77752">
        <ele>152.9</ele>
        <time>2025-10-24T08:45:24.000Z</time>
      </trkpt>
      <trkpt lat="43.58868" lon="6.77752">
        <ele>152.9</ele>
        <time>2025-10-24T08:45:25.000Z</time>
      </trkpt>
      <trkpt lat="43.58869" lon="6.77752">
        <ele>152.9</ele>
        <time>2025-10-24T08:45:26.000Z</time>
      </trkpt>
      <trkpt lat="43.58869" lon="6.77752">
        <ele>152.9</ele>
        <time>2025-10-24T08:45:27.000Z</time>
      </trkpt>
      <trkpt lat="43.58869" lon="6.77753">
        <ele>153</ele>
        <time>2025-10-24T08:45:28.000Z</time>
      </trkpt>
      <trkpt lat="43.58869" lon="6.77753">
        <ele>153</ele>
        <time>2025-10-24T08:45:29.000Z</time>
      </trkpt>
      <trkpt lat="43.5887" lon="6.77752">
        <ele>153</ele>
        <time>2025-10-24T08:45:30.000Z</time>
      </trkpt>
      <trkpt lat="43.58871" lon="6.77752">
        <ele>153.1</ele>
        <time>2025-10-24T08:45:31.000Z</time>
      </trkpt>
      <trkpt lat="43.5887" lon="6.77751">
        <ele>153.1</ele>
        <time>2025-10-24T08:45:32.000Z</time>
      </trkpt>
      <trkpt lat="43.5887" lon="6.77751">
        <ele>153.1</ele>
        <time>2025-10-24T08:45:33.000Z</time>
      </trkpt>
      <trkpt lat="43.5887" lon="6.77751">
        <ele>153.1</ele>
        <time>2025-10-24T08:45:34.000Z</time>
      </trkpt>
      <trkpt lat="43.58871" lon="6.77752">
        <ele>153.1</ele>
        <time>2025-10-24T08:45:35.000Z</time>
      </trkpt>
      <trkpt lat="43.5887" lon="6.77752">
        <ele>153.1</ele>
        <time>2025-10-24T08:45:36.000Z</time>
      </trkpt>
      <trkpt lat="43.5887" lon="6.77752">
        <ele>153.2</ele>
        <time>2025-10-24T08:45:37.000Z</time>
      </trkpt>
      <trkpt lat="43.58869" lon="6.77751">
        <ele>153.2</ele>
        <time>2025-10-24T08:45:38.000Z</time>
      </trkpt>
      <trkpt lat="43.58869" lon="6.77751">
        <ele>153.2</ele>
        <time>2025-10-24T08:45:39.000Z</time>
      </trkpt>
      <trkpt lat="43.58869" lon="6.77751">
        <ele>153.2</ele>
        <time>2025-10-24T08:45:40.000Z</time>
      </trkpt>
      <trkpt lat="43.58869" lon="6.77751">
        <ele>153.2</ele>
        <time>2025-10-24T08:45:41.000Z</time>
      </trkpt>
      <trkpt lat="43.58869" lon="6.77751">
        <ele>153.2</ele>
        <time>2025-10-24T08:45:42.000Z</time>
      </trkpt>
      <trkpt lat="43.58869" lon="6.77751">
        <ele>153.2</ele>
        <time>2025-10-24T08:45:43.000Z</time>
      </trkpt>
      <trkpt lat="43.58869" lon="6.77751">
        <ele>153.2</ele>
        <time>2025-10-24T08:45:44.000Z</time>
      </trkpt>
      <trkpt lat="43.58869" lon="6.77751">
        <ele>153.2</ele>
        <time>2025-10-24T08:45:45.000Z</time>
      </trkpt>
      <trkpt lat="43.58869" lon="6.77751">
        <ele>153.2</ele>
        <time>2025-10-24T08:45:46.000Z</time>
      </trkpt>
      <trkpt lat="43.58869" lon="6.77751">
        <ele>153.2</ele>
        <time>2025-10-24T08:45:47.000Z</time>
      </trkpt>
      <trkpt lat="43.58869" lon="6.77751">
        <ele>153.2</ele>
        <time>2025-10-24T08:45:48.000Z</time>
      </trkpt>
      <trkpt lat="43.58869" lon="6.77751">
        <ele>153.2</ele>
        <time>2025-10-24T08:45:49.000Z</time>
      </trkpt>
      <trkpt lat="43.58869" lon="6.77751">
        <ele>153.2</ele>
        <time>2025-10-24T08:45:50.000Z</time>
      </trkpt>
      <trkpt lat="43.58869" lon="6.77751">
        <ele>153.2</ele>
        <time>2025-10-24T08:45:51.000Z</time>
      </trkpt>
      <trkpt lat="43.58869" lon="6.77751">
        <ele>153.2</ele>
        <time>2025-10-24T08:45:52.000Z</time>
      </trkpt>
      <trkpt lat="43.58869" lon="6.77752">
        <ele>153.2</ele>
        <time>2025-10-24T08:45:53.000Z</time>
      </trkpt>
      <trkpt lat="43.58869" lon="6.77752">
        <ele>153.2</ele>
        <time>2025-10-24T08:45:54.000Z</time>
      </trkpt>
      <trkpt lat="43.5887" lon="6.77752">
        <ele>153.2</ele>
        <time>2025-10-24T08:45:55.000Z</time>
      </trkpt>
      <trkpt lat="43.58872" lon="6.77755">
        <ele>153.4</ele>
        <time>2025-10-24T08:45:56.000Z</time>
      </trkpt>
      <trkpt lat="43.58874" lon="6.77757">
        <ele>153.5</ele>
        <time>2025-10-24T08:45:57.000Z</time>
      </trkpt>
      <trkpt lat="43.58877" lon="6.7776">
        <ele>153.7</ele>
        <time>2025-10-24T08:45:58.000Z</time>
      </trkpt>
      <trkpt lat="43.58878" lon="6.77762">
        <ele>153.8</ele>
        <time>2025-10-24T08:45:59.000Z</time>
      </trkpt>
      <trkpt lat="43.5888" lon="6.77764">
        <ele>153.9</ele>
        <time>2025-10-24T08:46:00.000Z</time>
      </trkpt>
      <trkpt lat="43.58882" lon="6.77767">
        <ele>154</ele>
        <time>2025-10-24T08:46:01.000Z</time>
      </trkpt>
      <trkpt lat="43.58884" lon="6.77769">
        <ele>154.1</ele>
        <time>2025-10-24T08:46:02.000Z</time>
      </trkpt>
      <trkpt lat="43.58885" lon="6.77771">
        <ele>154.2</ele>
        <time>2025-10-24T08:46:03.000Z</time>
      </trkpt>
      <trkpt lat="43.58886" lon="6.77774">
        <ele>154.3</ele>
        <time>2025-10-24T08:46:04.000Z</time>
      </trkpt>
      <trkpt lat="43.58887" lon="6.77776">
        <ele>154.4</ele>
        <time>2025-10-24T08:46:05.000Z</time>
      </trkpt>
      <trkpt lat="43.58888" lon="6.7778">
        <ele>154.5</ele>
        <time>2025-10-24T08:46:06.000Z</time>
      </trkpt>
      <trkpt lat="43.58889" lon="6.77783">
        <ele>154.6</ele>
        <time>2025-10-24T08:46:07.000Z</time>
      </trkpt>
      <trkpt lat="43.5889" lon="6.77786">
        <ele>154.7</ele>
        <time>2025-10-24T08:46:08.000Z</time>
      </trkpt>
      <trkpt lat="43.58892" lon="6.77789">
        <ele>154.8</ele>
        <time>2025-10-24T08:46:09.000Z</time>
      </trkpt>
      <trkpt lat="43.58893" lon="6.77791">
        <ele>154.9</ele>
        <time>2025-10-24T08:46:10.000Z</time>
      </trkpt>
      <trkpt lat="43.58894" lon="6.77793">
        <ele>155</ele>
        <time>2025-10-24T08:46:11.000Z</time>
      </trkpt>
      <trkpt lat="43.58896" lon="6.77796">
        <ele>155.1</ele>
        <time>2025-10-24T08:46:12.000Z</time>
      </trkpt>
      <trkpt lat="43.58897" lon="6.77799">
        <ele>155.2</ele>
        <time>2025-10-24T08:46:13.000Z</time>
      </trkpt>
      <trkpt lat="43.58899" lon="6.77801">
        <ele>155.3</ele>
        <time>2025-10-24T08:46:14.000Z</time>
      </trkpt>
      <trkpt lat="43.58901" lon="6.77804">
        <ele>155.4</ele>
        <time>2025-10-24T08:46:15.000Z</time>
      </trkpt>
      <trkpt lat="43.58902" lon="6.77807">
        <ele>155.5</ele>
        <time>2025-10-24T08:46:16.000Z</time>
      </trkpt>
      <trkpt lat="43.58904" lon="6.7781">
        <ele>155.7</ele>
        <time>2025-10-24T08:46:17.000Z</time>
      </trkpt>
      <trkpt lat="43.58906" lon="6.77813">
        <ele>155.8</ele>
        <time>2025-10-24T08:46:18.000Z</time>
      </trkpt>
      <trkpt lat="43.58909" lon="6.77815">
        <ele>155.9</ele>
        <time>2025-10-24T08:46:19.000Z</time>
      </trkpt>
      <trkpt lat="43.58911" lon="6.77817">
        <ele>156.1</ele>
        <time>2025-10-24T08:46:20.000Z</time>
      </trkpt>
      <trkpt lat="43.58914" lon="6.77819">
        <ele>156.3</ele>
        <time>2025-10-24T08:46:21.000Z</time>
      </trkpt>
      <trkpt lat="43.58917" lon="6.77821">
        <ele>156.5</ele>
        <time>2025-10-24T08:46:22.000Z</time>
      </trkpt>
      <trkpt lat="43.58919" lon="6.77822">
        <ele>156.6</ele>
        <time>2025-10-24T08:46:23.000Z</time>
      </trkpt>
      <trkpt lat="43.58921" lon="6.77823">
        <ele>156.8</ele>
        <time>2025-10-24T08:46:24.000Z</time>
      </trkpt>
      <trkpt lat="43.58923" lon="6.77824">
        <ele>157</ele>
        <time>2025-10-24T08:46:25.000Z</time>
      </trkpt>
      <trkpt lat="43.58926" lon="6.77824">
        <ele>157.2</ele>
        <time>2025-10-24T08:46:26.000Z</time>
      </trkpt>
      <trkpt lat="43.58928" lon="6.77822">
        <ele>157.3</ele>
        <time>2025-10-24T08:46:27.000Z</time>
      </trkpt>
      <trkpt lat="43.58929" lon="6.7782">
        <ele>157.4</ele>
        <time>2025-10-24T08:46:28.000Z</time>
      </trkpt>
      <trkpt lat="43.5893" lon="6.77816">
        <ele>157.5</ele>
        <time>2025-10-24T08:46:29.000Z</time>
      </trkpt>
      <trkpt lat="43.58929" lon="6.77813">
        <ele>157.6</ele>
        <time>2025-10-24T08:46:30.000Z</time>
      </trkpt>
      <trkpt lat="43.58928" lon="6.77809">
        <ele>157.8</ele>
        <time>2025-10-24T08:46:31.000Z</time>
      </trkpt>
      <trkpt lat="43.58927" lon="6.77805">
        <ele>158</ele>
        <time>2025-10-24T08:46:32.000Z</time>
      </trkpt>
      <trkpt lat="43.58925" lon="6.77801">
        <ele>158.1</ele>
        <time>2025-10-24T08:46:33.000Z</time>
      </trkpt>
      <trkpt lat="43.58924" lon="6.77799">
        <ele>158.3</ele>
        <time>2025-10-24T08:46:34.000Z</time>
      </trkpt>
      <trkpt lat="43.58923" lon="6.77796">
        <ele>158.5</ele>
        <time>2025-10-24T08:46:35.000Z</time>
      </trkpt>
      <trkpt lat="43.58921" lon="6.77792">
        <ele>158.8</ele>
        <time>2025-10-24T08:46:36.000Z</time>
      </trkpt>
      <trkpt lat="43.58919" lon="6.77789">
        <ele>159</ele>
        <time>2025-10-24T08:46:37.000Z</time>
      </trkpt>
      <trkpt lat="43.58918" lon="6.77786">
        <ele>159.2</ele>
        <time>2025-10-24T08:46:38.000Z</time>
      </trkpt>
      <trkpt lat="43.58916" lon="6.77783">
        <ele>159.5</ele>
        <time>2025-10-24T08:46:39.000Z</time>
      </trkpt>
      <trkpt lat="43.58914" lon="6.77779">
        <ele>159.8</ele>
        <time>2025-10-24T08:46:40.000Z</time>
      </trkpt>
      <trkpt lat="43.58913" lon="6.77776">
        <ele>160.1</ele>
        <time>2025-10-24T08:46:41.000Z</time>
      </trkpt>
      <trkpt lat="43.58912" lon="6.77772">
        <ele>160.3</ele>
        <time>2025-10-24T08:46:42.000Z</time>
      </trkpt>
      <trkpt lat="43.5891" lon="6.77769">
        <ele>160.6</ele>
        <time>2025-10-24T08:46:43.000Z</time>
      </trkpt>
      <trkpt lat="43.58909" lon="6.77765">
        <ele>161</ele>
        <time>2025-10-24T08:46:44.000Z</time>
      </trkpt>
      <trkpt lat="43.58909" lon="6.7776">
        <ele>161.2</ele>
        <time>2025-10-24T08:46:45.000Z</time>
      </trkpt>
      <trkpt lat="43.58909" lon="6.77755">
        <ele>161.4</ele>
        <time>2025-10-24T08:46:46.000Z</time>
      </trkpt>
      <trkpt lat="43.5891" lon="6.7775">
        <ele>161.6</ele>
        <time>2025-10-24T08:46:47.000Z</time>
      </trkpt>
      <trkpt lat="43.58911" lon="6.77745">
        <ele>161.7</ele>
        <time>2025-10-24T08:46:48.000Z</time>
      </trkpt>
      <trkpt lat="43.58913" lon="6.7774">
        <ele>161.9</ele>
        <time>2025-10-24T08:46:49.000Z</time>
      </trkpt>
      <trkpt lat="43.58914" lon="6.77735">
        <ele>162.1</ele>
        <time>2025-10-24T08:46:50.000Z</time>
      </trkpt>
      <trkpt lat="43.58916" lon="6.7773">
        <ele>162.2</ele>
        <time>2025-10-24T08:46:51.000Z</time>
      </trkpt>
      <trkpt lat="43.58918" lon="6.77725">
        <ele>162.3</ele>
        <time>2025-10-24T08:46:52.000Z</time>
      </trkpt>
      <trkpt lat="43.5892" lon="6.77721">
        <ele>162.4</ele>
        <time>2025-10-24T08:46:53.000Z</time>
      </trkpt>
      <trkpt lat="43.58922" lon="6.77715">
        <ele>162.5</ele>
        <time>2025-10-24T08:46:54.000Z</time>
      </trkpt>
      <trkpt lat="43.58924" lon="6.7771">
        <ele>162.6</ele>
        <time>2025-10-24T08:46:55.000Z</time>
      </trkpt>
      <trkpt lat="43.58925" lon="6.77704">
        <ele>162.7</ele>
        <time>2025-10-24T08:46:56.000Z</time>
      </trkpt>
      <trkpt lat="43.58927" lon="6.77698">
        <ele>162.8</ele>
        <time>2025-10-24T08:46:57.000Z</time>
      </trkpt>
      <trkpt lat="43.58929" lon="6.77693">
        <ele>162.9</ele>
        <time>2025-10-24T08:46:58.000Z</time>
      </trkpt>
      <trkpt lat="43.5893" lon="6.77688">
        <ele>163</ele>
        <time>2025-10-24T08:46:59.000Z</time>
      </trkpt>
      <trkpt lat="43.58931" lon="6.77682">
        <ele>163</ele>
        <time>2025-10-24T08:47:00.000Z</time>
      </trkpt>
      <trkpt lat="43.58933" lon="6.77675">
        <ele>163.1</ele>
        <time>2025-10-24T08:47:01.000Z</time>
      </trkpt>
      <trkpt lat="43.58935" lon="6.77669">
        <ele>163.1</ele>
        <time>2025-10-24T08:47:02.000Z</time>
      </trkpt>
      <trkpt lat="43.58936" lon="6.77662">
        <ele>163.2</ele>
        <time>2025-10-24T08:47:03.000Z</time>
      </trkpt>
      <trkpt lat="43.58938" lon="6.77656">
        <ele>163.2</ele>
        <time>2025-10-24T08:47:04.000Z</time>
      </trkpt>
      <trkpt lat="43.5894" lon="6.77649">
        <ele>163.1</ele>
        <time>2025-10-24T08:47:05.000Z</time>
      </trkpt>
      <trkpt lat="43.58942" lon="6.77643">
        <ele>163</ele>
        <time>2025-10-24T08:47:06.000Z</time>
      </trkpt>
      <trkpt lat="43.58944" lon="6.77636">
        <ele>162.9</ele>
        <time>2025-10-24T08:47:07.000Z</time>
      </trkpt>
      <trkpt lat="43.58946" lon="6.77629">
        <ele>162.8</ele>
        <time>2025-10-24T08:47:08.000Z</time>
      </trkpt>
      <trkpt lat="43.58948" lon="6.77622">
        <ele>162.7</ele>
        <time>2025-10-24T08:47:09.000Z</time>
      </trkpt>
      <trkpt lat="43.58949" lon="6.77615">
        <ele>162.6</ele>
        <time>2025-10-24T08:47:10.000Z</time>
      </trkpt>
      <trkpt lat="43.58951" lon="6.77609">
        <ele>162.4</ele>
        <time>2025-10-24T08:47:11.000Z</time>
      </trkpt>
      <trkpt lat="43.58953" lon="6.77602">
        <ele>162.3</ele>
        <time>2025-10-24T08:47:12.000Z</time>
      </trkpt>
      <trkpt lat="43.58955" lon="6.77596">
        <ele>162.3</ele>
        <time>2025-10-24T08:47:13.000Z</time>
      </trkpt>
      <trkpt lat="43.58956" lon="6.7759">
        <ele>162.2</ele>
        <time>2025-10-24T08:47:14.000Z</time>
      </trkpt>
      <trkpt lat="43.58958" lon="6.77584">
        <ele>162.1</ele>
        <time>2025-10-24T08:47:15.000Z</time>
      </trkpt>
      <trkpt lat="43.5896" lon="6.77577">
        <ele>162</ele>
        <time>2025-10-24T08:47:16.000Z</time>
      </trkpt>
      <trkpt lat="43.58961" lon="6.77571">
        <ele>161.9</ele>
        <time>2025-10-24T08:47:17.000Z</time>
      </trkpt>
      <trkpt lat="43.58963" lon="6.77563">
        <ele>161.7</ele>
        <time>2025-10-24T08:47:18.000Z</time>
      </trkpt>
      <trkpt lat="43.58964" lon="6.77556">
        <ele>161.6</ele>
        <time>2025-10-24T08:47:19.000Z</time>
      </trkpt>
      <trkpt lat="43.58966" lon="6.77548">
        <ele>161.4</ele>
        <time>2025-10-24T08:47:20.000Z</time>
      </trkpt>
      <trkpt lat="43.58968" lon="6.77539">
        <ele>161.1</ele>
        <time>2025-10-24T08:47:21.000Z</time>
      </trkpt>
      <trkpt lat="43.58971" lon="6.77531">
        <ele>160.8</ele>
        <time>2025-10-24T08:47:22.000Z</time>
      </trkpt>
      <trkpt lat="43.58973" lon="6.77525">
        <ele>160.6</ele>
        <time>2025-10-24T08:47:23.000Z</time>
      </trkpt>
      <trkpt lat="43.58975" lon="6.77518">
        <ele>160.4</ele>
        <time>2025-10-24T08:47:24.000Z</time>
      </trkpt>
      <trkpt lat="43.58978" lon="6.7751">
        <ele>160.2</ele>
        <time>2025-10-24T08:47:25.000Z</time>
      </trkpt>
      <trkpt lat="43.58981" lon="6.77503">
        <ele>160</ele>
        <time>2025-10-24T08:47:26.000Z</time>
      </trkpt>
      <trkpt lat="43.58984" lon="6.77496">
        <ele>159.9</ele>
        <time>2025-10-24T08:47:27.000Z</time>
      </trkpt>
      <trkpt lat="43.58987" lon="6.77489">
        <ele>159.7</ele>
        <time>2025-10-24T08:47:28.000Z</time>
      </trkpt>
      <trkpt lat="43.58991" lon="6.77482">
        <ele>159.6</ele>
        <time>2025-10-24T08:47:29.000Z</time>
      </trkpt>
      <trkpt lat="43.58994" lon="6.77475">
        <ele>159.6</ele>
        <time>2025-10-24T08:47:30.000Z</time>
      </trkpt>
      <trkpt lat="43.58997" lon="6.77469">
        <ele>159.5</ele>
        <time>2025-10-24T08:47:31.000Z</time>
      </trkpt>
      <trkpt lat="43.59" lon="6.77464">
        <ele>159.5</ele>
        <time>2025-10-24T08:47:32.000Z</time>
      </trkpt>
      <trkpt lat="43.59002" lon="6.7746">
        <ele>159.5</ele>
        <time>2025-10-24T08:47:33.000Z</time>
      </trkpt>
      <trkpt lat="43.59004" lon="6.77457">
        <ele>159.5</ele>
        <time>2025-10-24T08:47:34.000Z</time>
      </trkpt>
      <trkpt lat="43.59005" lon="6.77454">
        <ele>159.5</ele>
        <time>2025-10-24T08:47:35.000Z</time>
      </trkpt>
      <trkpt lat="43.59004" lon="6.77453">
        <ele>159.5</ele>
        <time>2025-10-24T08:47:36.000Z</time>
      </trkpt>
      <trkpt lat="43.59002" lon="6.77454">
        <ele>159.5</ele>
        <time>2025-10-24T08:47:37.000Z</time>
      </trkpt>
      <trkpt lat="43.59001" lon="6.77457">
        <ele>159.5</ele>
        <time>2025-10-24T08:47:38.000Z</time>
      </trkpt>
      <trkpt lat="43.58999" lon="6.77461">
        <ele>159.5</ele>
        <time>2025-10-24T08:47:39.000Z</time>
      </trkpt>
      <trkpt lat="43.58997" lon="6.77465">
        <ele>159.5</ele>
        <time>2025-10-24T08:47:40.000Z</time>
      </trkpt>
      <trkpt lat="43.58995" lon="6.77469">
        <ele>159.5</ele>
        <time>2025-10-24T08:47:41.000Z</time>
      </trkpt>
      <trkpt lat="43.58993" lon="6.77473">
        <ele>159.6</ele>
        <time>2025-10-24T08:47:42.000Z</time>
      </trkpt>
      <trkpt lat="43.5899" lon="6.77477">
        <ele>159.6</ele>
        <time>2025-10-24T08:47:43.000Z</time>
      </trkpt>
      <trkpt lat="43.58989" lon="6.7748">
        <ele>159.6</ele>
        <time>2025-10-24T08:47:44.000Z</time>
      </trkpt>
      <trkpt lat="43.58989" lon="6.77483">
        <ele>159.7</ele>
        <time>2025-10-24T08:47:45.000Z</time>
      </trkpt>
      <trkpt lat="43.5899" lon="6.77484">
        <ele>159.7</ele>
        <time>2025-10-24T08:47:46.000Z</time>
      </trkpt>
      <trkpt lat="43.58992" lon="6.77484">
        <ele>159.7</ele>
        <time>2025-10-24T08:47:47.000Z</time>
      </trkpt>
      <trkpt lat="43.58995" lon="6.77481">
        <ele>159.7</ele>
        <time>2025-10-24T08:47:48.000Z</time>
      </trkpt>
      <trkpt lat="43.58997" lon="6.77478">
        <ele>159.8</ele>
        <time>2025-10-24T08:47:49.000Z</time>
      </trkpt>
      <trkpt lat="43.58999" lon="6.77476">
        <ele>159.8</ele>
        <time>2025-10-24T08:47:50.000Z</time>
      </trkpt>
      <trkpt lat="43.59001" lon="6.77472">
        <ele>159.9</ele>
        <time>2025-10-24T08:47:51.000Z</time>
      </trkpt>
      <trkpt lat="43.59004" lon="6.77467">
        <ele>160</ele>
        <time>2025-10-24T08:47:52.000Z</time>
      </trkpt>
      <trkpt lat="43.59006" lon="6.77462">
        <ele>160.1</ele>
        <time>2025-10-24T08:47:53.000Z</time>
      </trkpt>
      <trkpt lat="43.59009" lon="6.77458">
        <ele>160.2</ele>
        <time>2025-10-24T08:47:54.000Z</time>
      </trkpt>
      <trkpt lat="43.59011" lon="6.77454">
        <ele>160.3</ele>
        <time>2025-10-24T08:47:55.000Z</time>
      </trkpt>
      <trkpt lat="43.59013" lon="6.77451">
        <ele>160.4</ele>
        <time>2025-10-24T08:47:56.000Z</time>
      </trkpt>
      <trkpt lat="43.59016" lon="6.77446">
        <ele>160.5</ele>
        <time>2025-10-24T08:47:57.000Z</time>
      </trkpt>
      <trkpt lat="43.59019" lon="6.77442">
        <ele>160.7</ele>
        <time>2025-10-24T08:47:58.000Z</time>
      </trkpt>
      <trkpt lat="43.59021" lon="6.77437">
        <ele>160.8</ele>
        <time>2025-10-24T08:47:59.000Z</time>
      </trkpt>
      <trkpt lat="43.59023" lon="6.77433">
        <ele>160.9</ele>
        <time>2025-10-24T08:48:00.000Z</time>
      </trkpt>
      <trkpt lat="43.59026" lon="6.77428">
        <ele>161</ele>
        <time>2025-10-24T08:48:01.000Z</time>
      </trkpt>
      <trkpt lat="43.59029" lon="6.77423">
        <ele>161.1</ele>
        <time>2025-10-24T08:48:02.000Z</time>
      </trkpt>
      <trkpt lat="43.59032" lon="6.77417">
        <ele>161.3</ele>
        <time>2025-10-24T08:48:03.000Z</time>
      </trkpt>
      <trkpt lat="43.59034" lon="6.77414">
        <ele>161.4</ele>
        <time>2025-10-24T08:48:04.000Z</time>
      </trkpt>
      <trkpt lat="43.59036" lon="6.77409">
        <ele>161.5</ele>
        <time>2025-10-24T08:48:05.000Z</time>
      </trkpt>
      <trkpt lat="43.59039" lon="6.77405">
        <ele>161.6</ele>
        <time>2025-10-24T08:48:06.000Z</time>
      </trkpt>
      <trkpt lat="43.59041" lon="6.774">
        <ele>161.7</ele>
        <time>2025-10-24T08:48:07.000Z</time>
      </trkpt>
      <trkpt lat="43.59044" lon="6.77395">
        <ele>161.8</ele>
        <time>2025-10-24T08:48:08.000Z</time>
      </trkpt>
      <trkpt lat="43.59046" lon="6.77392">
        <ele>161.9</ele>
        <time>2025-10-24T08:48:09.000Z</time>
      </trkpt>
      <trkpt lat="43.59048" lon="6.77388">
        <ele>161.9</ele>
        <time>2025-10-24T08:48:10.000Z</time>
      </trkpt>
      <trkpt lat="43.5905" lon="6.77385">
        <ele>162</ele>
        <time>2025-10-24T08:48:11.000Z</time>
      </trkpt>
      <trkpt lat="43.59053" lon="6.77381">
        <ele>162.1</ele>
        <time>2025-10-24T08:48:12.000Z</time>
      </trkpt>
      <trkpt lat="43.59055" lon="6.77377">
        <ele>162.2</ele>
        <time>2025-10-24T08:48:13.000Z</time>
      </trkpt>
      <trkpt lat="43.59057" lon="6.77373">
        <ele>162.3</ele>
        <time>2025-10-24T08:48:14.000Z</time>
      </trkpt>
      <trkpt lat="43.59059" lon="6.7737">
        <ele>162.3</ele>
        <time>2025-10-24T08:48:15.000Z</time>
      </trkpt>
      <trkpt lat="43.59061" lon="6.77367">
        <ele>162.4</ele>
        <time>2025-10-24T08:48:16.000Z</time>
      </trkpt>
      <trkpt lat="43.59062" lon="6.77364">
        <ele>162.4</ele>
        <time>2025-10-24T08:48:17.000Z</time>
      </trkpt>
      <trkpt lat="43.59064" lon="6.77362">
        <ele>162.4</ele>
        <time>2025-10-24T08:48:18.000Z</time>
      </trkpt>
      <trkpt lat="43.59065" lon="6.7736">
        <ele>162.4</ele>
        <time>2025-10-24T08:48:19.000Z</time>
      </trkpt>
      <trkpt lat="43.59067" lon="6.77358">
        <ele>162.4</ele>
        <time>2025-10-24T08:48:20.000Z</time>
      </trkpt>
      <trkpt lat="43.59068" lon="6.77356">
        <ele>162.4</ele>
        <time>2025-10-24T08:48:21.000Z</time>
      </trkpt>
      <trkpt lat="43.59069" lon="6.77355">
        <ele>162.4</ele>
        <time>2025-10-24T08:48:22.000Z</time>
      </trkpt>
      <trkpt lat="43.59069" lon="6.77355">
        <ele>162.4</ele>
        <time>2025-10-24T08:48:23.000Z</time>
      </trkpt>
      <trkpt lat="43.59069" lon="6.77355">
        <ele>162.4</ele>
        <time>2025-10-24T08:48:24.000Z</time>
      </trkpt>
      <trkpt lat="43.5907" lon="6.77354">
        <ele>162.3</ele>
        <time>2025-10-24T08:48:25.000Z</time>
      </trkpt>
      <trkpt lat="43.59071" lon="6.77352">
        <ele>162.3</ele>
        <time>2025-10-24T08:48:26.000Z</time>
      </trkpt>
      <trkpt lat="43.59071" lon="6.77352">
        <ele>162.3</ele>
        <time>2025-10-24T08:48:27.000Z</time>
      </trkpt>
      <trkpt lat="43.59071" lon="6.77352">
        <ele>162.3</ele>
        <time>2025-10-24T08:48:28.000Z</time>
      </trkpt>
      <trkpt lat="43.59071" lon="6.77352">
        <ele>162.3</ele>
        <time>2025-10-24T08:48:29.000Z</time>
      </trkpt>
      <trkpt lat="43.59071" lon="6.77352">
        <ele>162.3</ele>
        <time>2025-10-24T08:48:30.000Z</time>
      </trkpt>
      <trkpt lat="43.59071" lon="6.77351">
        <ele>162.3</ele>
        <time>2025-10-24T08:48:31.000Z</time>
      </trkpt>
      <trkpt lat="43.59071" lon="6.77351">
        <ele>162.3</ele>
        <time>2025-10-24T08:48:32.000Z</time>
      </trkpt>
      <trkpt lat="43.59071" lon="6.77351">
        <ele>162.3</ele>
        <time>2025-10-24T08:48:33.000Z</time>
      </trkpt>
      <trkpt lat="43.59071" lon="6.77351">
        <ele>162.3</ele>
        <time>2025-10-24T08:48:34.000Z</time>
      </trkpt>
      <trkpt lat="43.59072" lon="6.77352">
        <ele>162.3</ele>
        <time>2025-10-24T08:48:35.000Z</time>
      </trkpt>
      <trkpt lat="43.59073" lon="6.77353">
        <ele>162.3</ele>
        <time>2025-10-24T08:48:36.000Z</time>
      </trkpt>
      <trkpt lat="43.59073" lon="6.77353">
        <ele>162.3</ele>
        <time>2025-10-24T08:48:37.000Z</time>
      </trkpt>
      <trkpt lat="43.59073" lon="6.77353">
        <ele>162.3</ele>
        <time>2025-10-24T08:48:38.000Z</time>
      </trkpt>
      <trkpt lat="43.59073" lon="6.77353">
        <ele>162.3</ele>
        <time>2025-10-24T08:48:39.000Z</time>
      </trkpt>
      <trkpt lat="43.59073" lon="6.77353">
        <ele>162.3</ele>
        <time>2025-10-24T08:48:40.000Z</time>
      </trkpt>
      <trkpt lat="43.59073" lon="6.77353">
        <ele>162.3</ele>
        <time>2025-10-24T08:48:41.000Z</time>
      </trkpt>
      <trkpt lat="43.59073" lon="6.77353">
        <ele>162.3</ele>
        <time>2025-10-24T08:48:42.000Z</time>
      </trkpt>
      <trkpt lat="43.59073" lon="6.77353">
        <ele>162.3</ele>
        <time>2025-10-24T08:48:43.000Z</time>
      </trkpt>
      <trkpt lat="43.59073" lon="6.77353">
        <ele>162.3</ele>
        <time>2025-10-24T08:48:44.000Z</time>
      </trkpt>
      <trkpt lat="43.59073" lon="6.77353">
        <ele>162.3</ele>
        <time>2025-10-24T08:48:45.000Z</time>
      </trkpt>
      <trkpt lat="43.5907" lon="6.7735">
        <ele>162.2</ele>
        <time>2025-10-24T08:48:46.000Z</time>
      </trkpt>
      <trkpt lat="43.59067" lon="6.77348">
        <ele>161.9</ele>
        <time>2025-10-24T08:48:47.000Z</time>
      </trkpt>
      <trkpt lat="43.59062" lon="6.77348">
        <ele>161.6</ele>
        <time>2025-10-24T08:48:48.000Z</time>
      </trkpt>
      <trkpt lat="43.59059" lon="6.77349">
        <ele>161.4</ele>
        <time>2025-10-24T08:48:49.000Z</time>
      </trkpt>
      <trkpt lat="43.59053" lon="6.77351">
        <ele>161</ele>
        <time>2025-10-24T08:48:50.000Z</time>
      </trkpt>
      <trkpt lat="43.59047" lon="6.77353">
        <ele>160.6</ele>
        <time>2025-10-24T08:48:51.000Z</time>
      </trkpt>
      <trkpt lat="43.59042" lon="6.77355">
        <ele>160.2</ele>
        <time>2025-10-24T08:48:52.000Z</time>
      </trkpt>
      <trkpt lat="43.59037" lon="6.77357">
        <ele>159.8</ele>
        <time>2025-10-24T08:48:53.000Z</time>
      </trkpt>
      <trkpt lat="43.59031" lon="6.77358">
        <ele>159.4</ele>
        <time>2025-10-24T08:48:54.000Z</time>
      </trkpt>
      <trkpt lat="43.59023" lon="6.77361">
        <ele>158.9</ele>
        <time>2025-10-24T08:48:55.000Z</time>
      </trkpt>
      <trkpt lat="43.59017" lon="6.77364">
        <ele>158.5</ele>
        <time>2025-10-24T08:48:56.000Z</time>
      </trkpt>
      <trkpt lat="43.5901" lon="6.77366">
        <ele>158</ele>
        <time>2025-10-24T08:48:57.000Z</time>
      </trkpt>
      <trkpt lat="43.59004" lon="6.77368">
        <ele>157.6</ele>
        <time>2025-10-24T08:48:58.000Z</time>
      </trkpt>
      <trkpt lat="43.58997" lon="6.77369">
        <ele>157.2</ele>
        <time>2025-10-24T08:48:59.000Z</time>
      </trkpt>
      <trkpt lat="43.58988" lon="6.77371">
        <ele>156.7</ele>
        <time>2025-10-24T08:49:00.000Z</time>
      </trkpt>
      <trkpt lat="43.5898" lon="6.77372">
        <ele>156.2</ele>
        <time>2025-10-24T08:49:01.000Z</time>
      </trkpt>
      <trkpt lat="43.58973" lon="6.77373">
        <ele>155.8</ele>
        <time>2025-10-24T08:49:02.000Z</time>
      </trkpt>
      <trkpt lat="43.58965" lon="6.77374">
        <ele>155.4</ele>
        <time>2025-10-24T08:49:03.000Z</time>
      </trkpt>
      <trkpt lat="43.58957" lon="6.77375">
        <ele>155</ele>
        <time>2025-10-24T08:49:04.000Z</time>
      </trkpt>
      <trkpt lat="43.58949" lon="6.77376">
        <ele>154.7</ele>
        <time>2025-10-24T08:49:05.000Z</time>
      </trkpt>
      <trkpt lat="43.58941" lon="6.77376">
        <ele>154.4</ele>
        <time>2025-10-24T08:49:06.000Z</time>
      </trkpt>
      <trkpt lat="43.58933" lon="6.77375">
        <ele>154.2</ele>
        <time>2025-10-24T08:49:07.000Z</time>
      </trkpt>
      <trkpt lat="43.58926" lon="6.77373">
        <ele>154.1</ele>
        <time>2025-10-24T08:49:08.000Z</time>
      </trkpt>
      <trkpt lat="43.58919" lon="6.77371">
        <ele>154</ele>
        <time>2025-10-24T08:49:09.000Z</time>
      </trkpt>
      <trkpt lat="43.58912" lon="6.77367">
        <ele>153.9</ele>
        <time>2025-10-24T08:49:10.000Z</time>
      </trkpt>
      <trkpt lat="43.58906" lon="6.77363">
        <ele>153.9</ele>
        <time>2025-10-24T08:49:11.000Z</time>
      </trkpt>
      <trkpt lat="43.589" lon="6.77359">
        <ele>153.8</ele>
        <time>2025-10-24T08:49:12.000Z</time>
      </trkpt>
      <trkpt lat="43.58895" lon="6.77354">
        <ele>153.7</ele>
        <time>2025-10-24T08:49:13.000Z</time>
      </trkpt>
      <trkpt lat="43.58889" lon="6.7735">
        <ele>153.6</ele>
        <time>2025-10-24T08:49:14.000Z</time>
      </trkpt>
      <trkpt lat="43.58884" lon="6.77345">
        <ele>153.5</ele>
        <time>2025-10-24T08:49:15.000Z</time>
      </trkpt>
      <trkpt lat="43.58879" lon="6.7734">
        <ele>153.4</ele>
        <time>2025-10-24T08:49:16.000Z</time>
      </trkpt>
      <trkpt lat="43.58873" lon="6.77336">
        <ele>153.3</ele>
        <time>2025-10-24T08:49:17.000Z</time>
      </trkpt>
      <trkpt lat="43.58868" lon="6.77331">
        <ele>153.2</ele>
        <time>2025-10-24T08:49:18.000Z</time>
      </trkpt>
      <trkpt lat="43.58862" lon="6.77327">
        <ele>153.1</ele>
        <time>2025-10-24T08:49:19.000Z</time>
      </trkpt>
      <trkpt lat="43.58857" lon="6.77323">
        <ele>153</ele>
        <time>2025-10-24T08:49:20.000Z</time>
      </trkpt>
      <trkpt lat="43.58852" lon="6.77319">
        <ele>153</ele>
        <time>2025-10-24T08:49:21.000Z</time>
      </trkpt>
      <trkpt lat="43.58848" lon="6.77316">
        <ele>152.9</ele>
        <time>2025-10-24T08:49:22.000Z</time>
      </trkpt>
      <trkpt lat="43.58844" lon="6.77312">
        <ele>152.9</ele>
        <time>2025-10-24T08:49:23.000Z</time>
      </trkpt>
      <trkpt lat="43.58839" lon="6.77308">
        <ele>152.9</ele>
        <time>2025-10-24T08:49:24.000Z</time>
      </trkpt>
      <trkpt lat="43.58834" lon="6.77305">
        <ele>152.9</ele>
        <time>2025-10-24T08:49:25.000Z</time>
      </trkpt>
      <trkpt lat="43.58831" lon="6.77302">
        <ele>152.9</ele>
        <time>2025-10-24T08:49:26.000Z</time>
      </trkpt>
      <trkpt lat="43.58828" lon="6.773">
        <ele>152.9</ele>
        <time>2025-10-24T08:49:27.000Z</time>
      </trkpt>
      <trkpt lat="43.58824" lon="6.77297">
        <ele>152.9</ele>
        <time>2025-10-24T08:49:28.000Z</time>
      </trkpt>
      <trkpt lat="43.58821" lon="6.77294">
        <ele>152.9</ele>
        <time>2025-10-24T08:49:29.000Z</time>
      </trkpt>
      <trkpt lat="43.58818" lon="6.77292">
        <ele>152.9</ele>
        <time>2025-10-24T08:49:30.000Z</time>
      </trkpt>
      <trkpt lat="43.58815" lon="6.7729">
        <ele>152.9</ele>
        <time>2025-10-24T08:49:31.000Z</time>
      </trkpt>
      <trkpt lat="43.58813" lon="6.77289">
        <ele>152.9</ele>
        <time>2025-10-24T08:49:32.000Z</time>
      </trkpt>
      <trkpt lat="43.58812" lon="6.7729">
        <ele>152.9</ele>
        <time>2025-10-24T08:49:33.000Z</time>
      </trkpt>
      <trkpt lat="43.58813" lon="6.77292">
        <ele>152.9</ele>
        <time>2025-10-24T08:49:34.000Z</time>
      </trkpt>
      <trkpt lat="43.58814" lon="6.77294">
        <ele>152.9</ele>
        <time>2025-10-24T08:49:35.000Z</time>
      </trkpt>
      <trkpt lat="43.58817" lon="6.77295">
        <ele>152.9</ele>
        <time>2025-10-24T08:49:36.000Z</time>
      </trkpt>
      <trkpt lat="43.5882" lon="6.77297">
        <ele>152.9</ele>
        <time>2025-10-24T08:49:37.000Z</time>
      </trkpt>
      <trkpt lat="43.58823" lon="6.77299">
        <ele>152.9</ele>
        <time>2025-10-24T08:49:38.000Z</time>
      </trkpt>
      <trkpt lat="43.58826" lon="6.77301">
        <ele>152.9</ele>
        <time>2025-10-24T08:49:39.000Z</time>
      </trkpt>
      <trkpt lat="43.58829" lon="6.77303">
        <ele>152.9</ele>
        <time>2025-10-24T08:49:40.000Z</time>
      </trkpt>
      <trkpt lat="43.58833" lon="6.77305">
        <ele>152.9</ele>
        <time>2025-10-24T08:49:41.000Z</time>
      </trkpt>
      <trkpt lat="43.58836" lon="6.77305">
        <ele>152.9</ele>
        <time>2025-10-24T08:49:42.000Z</time>
      </trkpt>
      <trkpt lat="43.58839" lon="6.77303">
        <ele>152.8</ele>
        <time>2025-10-24T08:49:43.000Z</time>
      </trkpt>
      <trkpt lat="43.58842" lon="6.77299">
        <ele>152.7</ele>
        <time>2025-10-24T08:49:44.000Z</time>
      </trkpt>
      <trkpt lat="43.58843" lon="6.77294">
        <ele>152.6</ele>
        <time>2025-10-24T08:49:45.000Z</time>
      </trkpt>
      <trkpt lat="43.58843" lon="6.7729">
        <ele>152.4</ele>
        <time>2025-10-24T08:49:46.000Z</time>
      </trkpt>
      <trkpt lat="43.58843" lon="6.77286">
        <ele>152.3</ele>
        <time>2025-10-24T08:49:47.000Z</time>
      </trkpt>
      <trkpt lat="43.58843" lon="6.7728">
        <ele>152.1</ele>
        <time>2025-10-24T08:49:48.000Z</time>
      </trkpt>
      <trkpt lat="43.58842" lon="6.77276">
        <ele>152</ele>
        <time>2025-10-24T08:49:49.000Z</time>
      </trkpt>
      <trkpt lat="43.58841" lon="6.77271">
        <ele>151.9</ele>
        <time>2025-10-24T08:49:50.000Z</time>
      </trkpt>
      <trkpt lat="43.58839" lon="6.77267">
        <ele>151.8</ele>
        <time>2025-10-24T08:49:51.000Z</time>
      </trkpt>
      <trkpt lat="43.58838" lon="6.77263">
        <ele>151.7</ele>
        <time>2025-10-24T08:49:52.000Z</time>
      </trkpt>
      <trkpt lat="43.58837" lon="6.77259">
        <ele>151.6</ele>
        <time>2025-10-24T08:49:53.000Z</time>
      </trkpt>
      <trkpt lat="43.58836" lon="6.77255">
        <ele>151.5</ele>
        <time>2025-10-24T08:49:54.000Z</time>
      </trkpt>
      <trkpt lat="43.58834" lon="6.77252">
        <ele>151.4</ele>
        <time>2025-10-24T08:49:55.000Z</time>
      </trkpt>
      <trkpt lat="43.58833" lon="6.77249">
        <ele>151.3</ele>
        <time>2025-10-24T08:49:56.000Z</time>
      </trkpt>
      <trkpt lat="43.58831" lon="6.77246">
        <ele>151.2</ele>
        <time>2025-10-24T08:49:57.000Z</time>
      </trkpt>
      <trkpt lat="43.5883" lon="6.77243">
        <ele>151.2</ele>
        <time>2025-10-24T08:49:58.000Z</time>
      </trkpt>
      <trkpt lat="43.58828" lon="6.7724">
        <ele>151.1</ele>
        <time>2025-10-24T08:49:59.000Z</time>
      </trkpt>
      <trkpt lat="43.58827" lon="6.77237">
        <ele>151.1</ele>
        <time>2025-10-24T08:50:00.000Z</time>
      </trkpt>
      <trkpt lat="43.58825" lon="6.77234">
        <ele>151</ele>
        <time>2025-10-24T08:50:01.000Z</time>
      </trkpt>
      <trkpt lat="43.58822" lon="6.77231">
        <ele>150.9</ele>
        <time>2025-10-24T08:50:02.000Z</time>
      </trkpt>
      <trkpt lat="43.5882" lon="6.77228">
        <ele>150.9</ele>
        <time>2025-10-24T08:50:03.000Z</time>
      </trkpt>
      <trkpt lat="43.58817" lon="6.77225">
        <ele>150.8</ele>
        <time>2025-10-24T08:50:04.000Z</time>
      </trkpt>
      <trkpt lat="43.58815" lon="6.77222">
        <ele>150.8</ele>
        <time>2025-10-24T08:50:05.000Z</time>
      </trkpt>
      <trkpt lat="43.58812" lon="6.77219">
        <ele>150.7</ele>
        <time>2025-10-24T08:50:06.000Z</time>
      </trkpt>
      <trkpt lat="43.58809" lon="6.77217">
        <ele>150.6</ele>
        <time>2025-10-24T08:50:07.000Z</time>
      </trkpt>
      <trkpt lat="43.58807" lon="6.77216">
        <ele>150.6</ele>
        <time>2025-10-24T08:50:08.000Z</time>
      </trkpt>
      <trkpt lat="43.58805" lon="6.77216">
        <ele>150.6</ele>
        <time>2025-10-24T08:50:09.000Z</time>
      </trkpt>
      <trkpt lat="43.58803" lon="6.77217">
        <ele>150.5</ele>
        <time>2025-10-24T08:50:10.000Z</time>
      </trkpt>
      <trkpt lat="43.58801" lon="6.77216">
        <ele>150.5</ele>
        <time>2025-10-24T08:50:11.000Z</time>
      </trkpt>
      <trkpt lat="43.58799" lon="6.77214">
        <ele>150.4</ele>
        <time>2025-10-24T08:50:12.000Z</time>
      </trkpt>
      <trkpt lat="43.58797" lon="6.77212">
        <ele>150.4</ele>
        <time>2025-10-24T08:50:13.000Z</time>
      </trkpt>
      <trkpt lat="43.58795" lon="6.7721">
        <ele>150.3</ele>
        <time>2025-10-24T08:50:14.000Z</time>
      </trkpt>
      <trkpt lat="43.58794" lon="6.77208">
        <ele>150.3</ele>
        <time>2025-10-24T08:50:15.000Z</time>
      </trkpt>
      <trkpt lat="43.58792" lon="6.77206">
        <ele>150.2</ele>
        <time>2025-10-24T08:50:16.000Z</time>
      </trkpt>
      <trkpt lat="43.58791" lon="6.77204">
        <ele>150.2</ele>
        <time>2025-10-24T08:50:17.000Z</time>
      </trkpt>
      <trkpt lat="43.5879" lon="6.77202">
        <ele>150.1</ele>
        <time>2025-10-24T08:50:18.000Z</time>
      </trkpt>
      <trkpt lat="43.58789" lon="6.772">
        <ele>150.1</ele>
        <time>2025-10-24T08:50:19.000Z</time>
      </trkpt>
      <trkpt lat="43.58788" lon="6.772">
        <ele>150.1</ele>
        <time>2025-10-24T08:50:20.000Z</time>
      </trkpt>
      <trkpt lat="43.58788" lon="6.77199">
        <ele>150.1</ele>
        <time>2025-10-24T08:50:21.000Z</time>
      </trkpt>
      <trkpt lat="43.58788" lon="6.77199">
        <ele>150.1</ele>
        <time>2025-10-24T08:50:22.000Z</time>
      </trkpt>
      <trkpt lat="43.58788" lon="6.77199">
        <ele>150.1</ele>
        <time>2025-10-24T08:50:23.000Z</time>
      </trkpt>
      <trkpt lat="43.58788" lon="6.77199">
        <ele>150.1</ele>
        <time>2025-10-24T08:50:24.000Z</time>
      </trkpt>
      <trkpt lat="43.58788" lon="6.77199">
        <ele>150.1</ele>
        <time>2025-10-24T08:50:25.000Z</time>
      </trkpt>
      <trkpt lat="43.58787" lon="6.77198">
        <ele>150.1</ele>
        <time>2025-10-24T08:50:26.000Z</time>
      </trkpt>
      <trkpt lat="43.58787" lon="6.77198">
        <ele>150</ele>
        <time>2025-10-24T08:50:27.000Z</time>
      </trkpt>
      <trkpt lat="43.58786" lon="6.77197">
        <ele>150</ele>
        <time>2025-10-24T08:50:28.000Z</time>
      </trkpt>
      <trkpt lat="43.58785" lon="6.77196">
        <ele>150</ele>
        <time>2025-10-24T08:50:29.000Z</time>
      </trkpt>
      <trkpt lat="43.58783" lon="6.77195">
        <ele>150</ele>
        <time>2025-10-24T08:50:30.000Z</time>
      </trkpt>
      <trkpt lat="43.58782" lon="6.77194">
        <ele>149.9</ele>
        <time>2025-10-24T08:50:31.000Z</time>
      </trkpt>
      <trkpt lat="43.5878" lon="6.77192">
        <ele>149.9</ele>
        <time>2025-10-24T08:50:32.000Z</time>
      </trkpt>
      <trkpt lat="43.58778" lon="6.7719">
        <ele>149.9</ele>
        <time>2025-10-24T08:50:33.000Z</time>
      </trkpt>
      <trkpt lat="43.58776" lon="6.77188">
        <ele>149.8</ele>
        <time>2025-10-24T08:50:34.000Z</time>
      </trkpt>
      <trkpt lat="43.58773" lon="6.77185">
        <ele>149.8</ele>
        <time>2025-10-24T08:50:35.000Z</time>
      </trkpt>
      <trkpt lat="43.5877" lon="6.77181">
        <ele>149.8</ele>
        <time>2025-10-24T08:50:36.000Z</time>
      </trkpt>
      <trkpt lat="43.58766" lon="6.77178">
        <ele>149.8</ele>
        <time>2025-10-24T08:50:37.000Z</time>
      </trkpt>
      <trkpt lat="43.58763" lon="6.77174">
        <ele>149.8</ele>
        <time>2025-10-24T08:50:38.000Z</time>
      </trkpt>
      <trkpt lat="43.58761" lon="6.7717">
        <ele>149.7</ele>
        <time>2025-10-24T08:50:39.000Z</time>
      </trkpt>
      <trkpt lat="43.58758" lon="6.77166">
        <ele>149.7</ele>
        <time>2025-10-24T08:50:40.000Z</time>
      </trkpt>
      <trkpt lat="43.58755" lon="6.77161">
        <ele>149.7</ele>
        <time>2025-10-24T08:50:41.000Z</time>
      </trkpt>
      <trkpt lat="43.58753" lon="6.77157">
        <ele>149.7</ele>
        <time>2025-10-24T08:50:42.000Z</time>
      </trkpt>
      <trkpt lat="43.58751" lon="6.77152">
        <ele>149.7</ele>
        <time>2025-10-24T08:50:43.000Z</time>
      </trkpt>
      <trkpt lat="43.58748" lon="6.77148">
        <ele>149.7</ele>
        <time>2025-10-24T08:50:44.000Z</time>
      </trkpt>
      <trkpt lat="43.58745" lon="6.77145">
        <ele>149.7</ele>
        <time>2025-10-24T08:50:45.000Z</time>
      </trkpt>
      <trkpt lat="43.58743" lon="6.77143">
        <ele>149.8</ele>
        <time>2025-10-24T08:50:46.000Z</time>
      </trkpt>
      <trkpt lat="43.5874" lon="6.7714">
        <ele>149.8</ele>
        <time>2025-10-24T08:50:47.000Z</time>
      </trkpt>
      <trkpt lat="43.58738" lon="6.77138">
        <ele>149.8</ele>
        <time>2025-10-24T08:50:48.000Z</time>
      </trkpt>
      <trkpt lat="43.58735" lon="6.77136">
        <ele>149.8</ele>
        <time>2025-10-24T08:50:49.000Z</time>
      </trkpt>
      <trkpt lat="43.58732" lon="6.77134">
        <ele>149.8</ele>
        <time>2025-10-24T08:50:50.000Z</time>
      </trkpt>
      <trkpt lat="43.58729" lon="6.77132">
        <ele>149.8</ele>
        <time>2025-10-24T08:50:51.000Z</time>
      </trkpt>
      <trkpt lat="43.58727" lon="6.7713">
        <ele>149.8</ele>
        <time>2025-10-24T08:50:52.000Z</time>
      </trkpt>
      <trkpt lat="43.58723" lon="6.77128">
        <ele>149.8</ele>
        <time>2025-10-24T08:50:53.000Z</time>
      </trkpt>
      <trkpt lat="43.5872" lon="6.77126">
        <ele>149.8</ele>
        <time>2025-10-24T08:50:54.000Z</time>
      </trkpt>
      <trkpt lat="43.58717" lon="6.77124">
        <ele>149.8</ele>
        <time>2025-10-24T08:50:55.000Z</time>
      </trkpt>
      <trkpt lat="43.58714" lon="6.77123">
        <ele>149.8</ele>
        <time>2025-10-24T08:50:56.000Z</time>
      </trkpt>
      <trkpt lat="43.58712" lon="6.77121">
        <ele>149.9</ele>
        <time>2025-10-24T08:50:57.000Z</time>
      </trkpt>
      <trkpt lat="43.58708" lon="6.77119">
        <ele>149.9</ele>
        <time>2025-10-24T08:50:58.000Z</time>
      </trkpt>
      <trkpt lat="43.58705" lon="6.77118">
        <ele>149.9</ele>
        <time>2025-10-24T08:50:59.000Z</time>
      </trkpt>
      <trkpt lat="43.58702" lon="6.77118">
        <ele>150.3</ele>
        <time>2025-10-24T08:51:00.000Z</time>
      </trkpt>
      <trkpt lat="43.58699" lon="6.77119">
        <ele>150.6</ele>
        <time>2025-10-24T08:51:01.000Z</time>
      </trkpt>
      <trkpt lat="43.58697" lon="6.77121">
        <ele>150.9</ele>
        <time>2025-10-24T08:51:02.000Z</time>
      </trkpt>
      <trkpt lat="43.58694" lon="6.77124">
        <ele>151.2</ele>
        <time>2025-10-24T08:51:03.000Z</time>
      </trkpt>
      <trkpt lat="43.58692" lon="6.77128">
        <ele>151.6</ele>
        <time>2025-10-24T08:51:04.000Z</time>
      </trkpt>
      <trkpt lat="43.5869" lon="6.77131">
        <ele>151.9</ele>
        <time>2025-10-24T08:51:05.000Z</time>
      </trkpt>
      <trkpt lat="43.58687" lon="6.77134">
        <ele>152.2</ele>
        <time>2025-10-24T08:51:06.000Z</time>
      </trkpt>
      <trkpt lat="43.58685" lon="6.77136">
        <ele>152.4</ele>
        <time>2025-10-24T08:51:07.000Z</time>
      </trkpt>
      <trkpt lat="43.58682" lon="6.77137">
        <ele>152.7</ele>
        <time>2025-10-24T08:51:08.000Z</time>
      </trkpt>
      <trkpt lat="43.58679" lon="6.77139">
        <ele>152.9</ele>
        <time>2025-10-24T08:51:09.000Z</time>
      </trkpt>
      <trkpt lat="43.58676" lon="6.77141">
        <ele>153.2</ele>
        <time>2025-10-24T08:51:10.000Z</time>
      </trkpt>
      <trkpt lat="43.58673" lon="6.77142">
        <ele>153.4</ele>
        <time>2025-10-24T08:51:11.000Z</time>
      </trkpt>
      <trkpt lat="43.58669" lon="6.77144">
        <ele>153.5</ele>
        <time>2025-10-24T08:51:12.000Z</time>
      </trkpt>
      <trkpt lat="43.58666" lon="6.77146">
        <ele>153.7</ele>
        <time>2025-10-24T08:51:13.000Z</time>
      </trkpt>
      <trkpt lat="43.58664" lon="6.77147">
        <ele>153.8</ele>
        <time>2025-10-24T08:51:14.000Z</time>
      </trkpt>
      <trkpt lat="43.58661" lon="6.77149">
        <ele>153.9</ele>
        <time>2025-10-24T08:51:15.000Z</time>
      </trkpt>
      <trkpt lat="43.58659" lon="6.7715">
        <ele>154</ele>
        <time>2025-10-24T08:51:16.000Z</time>
      </trkpt>
      <trkpt lat="43.58656" lon="6.7715">
        <ele>154.2</ele>
        <time>2025-10-24T08:51:17.000Z</time>
      </trkpt>
      <trkpt lat="43.58653" lon="6.77151">
        <ele>154.3</ele>
        <time>2025-10-24T08:51:18.000Z</time>
      </trkpt>
      <trkpt lat="43.58652" lon="6.77151">
        <ele>154.3</ele>
        <time>2025-10-24T08:51:19.000Z</time>
      </trkpt>
      <trkpt lat="43.5865" lon="6.77151">
        <ele>154.4</ele>
        <time>2025-10-24T08:51:20.000Z</time>
      </trkpt>
      <trkpt lat="43.58648" lon="6.77152">
        <ele>154.5</ele>
        <time>2025-10-24T08:51:21.000Z</time>
      </trkpt>
      <trkpt lat="43.58647" lon="6.77153">
        <ele>154.5</ele>
        <time>2025-10-24T08:51:22.000Z</time>
        <extensions>
          <visugpx:TrkExtension xmlns:visugpx="https://www.visugpx.com/editgpx/">
            <visugpx:node>1</visugpx:node>
            </visugpx:TrkExtension>
        </extensions>
      </trkpt>
    </trkseg>
  </trk>
</gpx>